Aérodrome :
LOGIN :

S'inscrire | Disclaimer

   EN    FR    IT 

 










Légende :    VFR   VFR Marginal   IFR   IFR Intensif   IFR Très Intensif
Visi : 
Plafond : 
>= 8 km
>= 3000ft
5 à 8 km
1000 à 3000 ft
1500m à 5 km
500 à 1000 ft
800 à 1500m
200 à 500 ft
< 800m
< 200 ft
Symboles :   Orages  Brouillard  Fortes neiges  Fortes précipitations  Vent > 20 kt
SIGMETs :   Divers  Orages  Givrage  Turbulence  Onde Orograph.  Cendres Volcan.







- Altitude de l'aérodrome : 46 ft
- Code IATA : SNN


EINN - Shannon

DERNIER METAR :
  • 192200Z 15011KT 9999 SCT022 BKN048 15/13 Q1014 NOSIG

METARs EXPIRÉS :
  • 192130Z 15012KT 9999 FEW014 SCT022 BKN050 15/13 Q1014 NOSIG
  • 192100Z 14010KT 9999 FEW014 BKN024 BKN060 15/13 Q1015 NOSIG
  • 192030Z 14010KT 9999 FEW014 BKN024 BKN070 15/12 Q1015 NOSIG
  • 192000Z 15013KT 9999 FEW015 SCT035 BKN110 15/12 Q1015 NOSIG
  • 191930Z 15010KT 9999 FEW015 BKN120 15/12 Q1015 NOSIG
  • 191900Z 16016KT 9999 FEW015 SCT050 15/12 Q1015 NOSIG

TAF TAF EINN
Valide du 19 à 18h jusqu'au 20 à 18h UTC


191700Z 1918/2018 15012KT 9999 SCT015 BKN025
TEMPO 1918/1920 -RA SCT008 BKN012
TEMPO 1923/2010 4000 -RADZ BKN008
BECMG 2005/2008 18006KT
PROB40
TEMPO 2005/2009 3000 RA BKN005
BECMG 2008/2011 31010KT
TEMPO 2010/2016 4000 RA BKN008
Pas de NOTAMs connus pour ce terrain.



MET'MAP, la Météo Aéronautique d'un coup d'oeil ! - Copyright ORBIFLY Décembre 2007 - Disclaimer

ORBIFLY MET'MAP TEAM :

Programmation & Développement : Alexandra Zaïnal
Conception & Développement : Baudouin d'Aumeries
Co-Programmation & Développement : Marc-Olivier Méhu
Soutien technique & logistique : Manuel Goepfert

Contact : metmap@orbifly.com




SOURCES & CREDITS :

   NOAA